Terminal Aerodrome Forecast
Issued by NWS Cleveland, OH

Home | Current Version | Previous Version | Text Only | Print | Product List | Glossary On
Versions: 1 2 3 4 5 6 7 8 9 10 11 12 13 14 15 16 17 18 19 20
000
FTUS41 KCLE 171600 AAA
TAFTOL
TAF AMD
KTOL 171600Z 1716/1812 08004KT 4SM BR OVC006
     FM172000 15006KT 6SM HZ OVC012
     FM172300 19005KT P6SM VCSH BKN020 OVC040
     FM180600 23005KT 3SM BR BKN008 OVC015=

USA.gov is the U.S. government's official web portal to all federal, state and local government web resources and services.